createdAt,value
2018-10-07T00:00:18.264Z,1000.96
2018-10-07T00:00:59.026Z,1000.96
2018-10-07T00:01:39.154Z,1001.02
2018-10-07T00:02:20.114Z,1000.99
2018-10-07T00:03:00.689Z,1001.01
2018-10-07T00:03:41.433Z,1001.02
2018-10-07T00:04:21.931Z,1001.04
2018-10-07T00:05:02.938Z,1001.04
2018-10-07T00:05:43.473Z,1001.04
2018-10-07T00:06:23.934Z,1001.03
2018-10-07T00:07:04.393Z,1001.02
2018-10-07T00:07:44.746Z,1000.99
2018-10-07T00:08:25.119Z,1001
2018-10-07T00:09:05.672Z,1001.03
2018-10-07T00:09:46.292Z,1000.98
2018-10-07T00:10:26.979Z,1000.98
2018-10-07T00:11:07.470Z,1000.99
2018-10-07T00:11:48.417Z,1000.99
2018-10-07T00:12:28.929Z,1001.03
2018-10-07T00:13:09.348Z,1001.03
2018-10-07T00:15:37.855Z,1001.23
2018-10-07T00:16:18.204Z,1001.21
2018-10-07T00:16:58.819Z,1001.24
2018-10-07T00:17:39.124Z,1001.25
2018-10-07T00:18:19.605Z,1001.18
2018-10-07T00:19:00.364Z,1001.24
2018-10-07T00:19:40.794Z,1001.26
2018-10-07T00:20:21.161Z,1001.24
2018-10-07T00:21:01.792Z,1001.25
2018-10-07T00:21:42.500Z,1001.26
2018-10-07T00:22:23.057Z,1001.25
2018-10-07T00:23:04.586Z,1001.28
2018-10-07T00:23:45.659Z,1001.32
2018-10-07T00:24:26.174Z,1001.33
2018-10-07T00:25:06.546Z,1001.41
2018-10-07T00:25:47.055Z,1001.44
2018-10-07T00:26:27.402Z,1001.43
2018-10-07T00:27:08.053Z,1001.48
2018-10-07T00:27:48.286Z,1001.52
2018-10-07T00:28:28.710Z,1001.55
2018-10-07T00:29:09.123Z,1001.65
2018-10-07T00:29:49.545Z,1001.71
2018-10-07T00:30:30.185Z,1001.76
2018-10-07T00:31:10.748Z,1001.81
2018-10-07T00:33:09.266Z,1001.91
2018-10-07T00:33:50.058Z,1001.95
2018-10-07T00:34:30.686Z,1001.98
2018-10-07T00:35:11.255Z,1002.05
2018-10-07T00:35:51.615Z,1002.11
2018-10-07T00:36:32.344Z,1002.14
2018-10-07T00:37:13.155Z,1002.19
2018-10-07T00:37:53.662Z,1002.3
2018-10-07T00:38:34.541Z,1002.33
2018-10-07T00:39:15.218Z,1002.39
2018-10-07T00:39:56.195Z,1002.45
2018-10-07T00:40:36.756Z,1002.56
2018-10-07T00:41:17.018Z,1002.6
2018-10-07T00:41:57.428Z,1002.64
2018-10-07T00:42:37.819Z,1002.72
2018-10-07T00:43:18.279Z,1002.76
2018-10-07T00:43:58.987Z,1002.78
2018-10-07T00:44:39.439Z,1002.81
2018-10-07T00:45:19.714Z,1002.8
2018-10-07T00:46:00.180Z,1002.81
2018-10-07T00:46:40.594Z,1002.78
2018-10-07T00:47:21.052Z,1002.8
2018-10-07T00:48:01.588Z,1002.78
2018-10-07T00:48:41.913Z,1002.78
2018-10-07T00:49:22.317Z,1002.74
2018-10-07T00:50:02.740Z,1002.75
2018-10-07T00:50:43.130Z,1002.76
2018-10-07T00:51:23.557Z,1002.7
2018-10-07T00:52:04.201Z,1002.75
2018-10-07T00:52:44.353Z,1002.73
2018-10-07T00:53:24.795Z,1002.68
2018-10-07T00:54:05.241Z,1002.67
2018-10-07T00:54:45.610Z,1002.62
2018-10-07T00:57:00.521Z,1002.55
2018-10-07T00:57:40.760Z,1002.49
2018-10-07T00:58:21.174Z,1002.41
2018-10-07T00:59:01.636Z,1002.37
2018-10-07T00:59:42.509Z,1002.3
2018-10-07T01:00:23.024Z,1002.28
2018-10-07T01:01:04.077Z,1002.16
2018-10-07T01:01:43.918Z,1002.19
2018-10-07T01:02:24.598Z,1002.15
2018-10-07T01:03:04.818Z,1002.11
2018-10-07T01:03:45.767Z,1002.13
2018-10-07T01:04:26.163Z,1002.09
2018-10-07T01:05:07.283Z,1002.06
2018-10-07T01:05:47.658Z,1002.08
2018-10-07T01:06:27.996Z,1002.04
2018-10-07T01:07:08.407Z,1001.98
2018-10-07T01:07:48.891Z,1002.04
2018-10-07T01:08:30.077Z,1002.07
2018-10-07T01:09:10.243Z,1002.06
2018-10-07T01:09:50.731Z,1002.08
2018-10-07T01:10:30.992Z,1002.08
2018-10-07T01:11:11.482Z,1002.17
2018-10-07T01:13:23.893Z,1002.29
2018-10-07T01:14:04.397Z,1002.31
2018-10-07T01:14:44.723Z,1002.4
2018-10-07T01:15:25.174Z,1002.44
2018-10-07T01:16:05.551Z,1002.53
2018-10-07T01:16:45.983Z,1002.5
2018-10-07T01:17:26.697Z,1002.55
2018-10-07T01:18:06.967Z,1002.62
2018-10-07T01:18:47.437Z,1002.59
2018-10-07T01:19:28.062Z,1002.66
2018-10-07T01:20:08.391Z,1002.67
2018-10-07T01:20:48.852Z,1002.68
2018-10-07T01:21:29.196Z,1002.74
2018-10-07T01:22:09.956Z,1002.73
2018-10-07T01:24:07.423Z,1002.69
2018-10-07T01:24:47.864Z,1002.69
2018-10-07T01:25:28.247Z,1002.67
2018-10-07T01:26:08.539Z,1002.69
2018-10-07T01:26:49.224Z,1002.68
2018-10-07T01:27:29.584Z,1002.69
2018-10-07T01:28:10.065Z,1002.71
2018-10-07T01:28:50.507Z,1002.7
2018-10-07T01:29:31.007Z,1002.72
2018-10-07T01:30:11.348Z,1002.68
2018-10-07T01:30:51.721Z,1002.67
2018-10-07T01:31:32.106Z,1002.67
2018-10-07T01:32:12.680Z,1002.67
2018-10-07T01:32:53.012Z,1002.63
2018-10-07T01:33:33.405Z,1002.65
2018-10-07T01:34:13.756Z,1002.61
2018-10-07T01:34:54.179Z,1002.63
2018-10-07T01:35:34.614Z,1002.64
2018-10-07T01:36:15.072Z,1002.63
2018-10-07T01:36:55.462Z,1002.67
2018-10-07T01:37:35.902Z,1002.62
2018-10-07T01:38:16.280Z,1002.64
2018-10-07T01:38:57.019Z,1002.68
2018-10-07T01:39:37.275Z,1002.63
2018-10-07T01:40:17.606Z,1002.65
2018-10-07T01:40:58.114Z,1002.6
2018-10-07T01:41:38.421Z,1002.55
2018-10-07T01:42:18.858Z,1002.53
2018-10-07T01:44:35.879Z,1002.36
2018-10-07T01:45:16.502Z,1002.3
2018-10-07T01:45:56.911Z,1002.28
2018-10-07T01:46:37.310Z,1002.23
2018-10-07T01:47:17.818Z,1002.22
2018-10-07T01:47:58.165Z,1002.18
2018-10-07T01:48:38.669Z,1002.2
2018-10-07T01:49:19.081Z,1002.2
2018-10-07T01:49:59.548Z,1002.17
2018-10-07T01:50:40.105Z,1002.18
2018-10-07T01:51:20.601Z,1002.14
2018-10-07T01:52:01.100Z,1002.13
2018-10-07T01:52:41.585Z,1002.08
2018-10-07T01:53:22.403Z,1002.08
2018-10-07T01:54:02.985Z,1002.01
2018-10-07T01:54:43.241Z,1001.97
2018-10-07T01:55:23.814Z,1001.96
2018-10-07T01:56:04.199Z,1001.88
2018-10-07T01:56:44.564Z,1001.89
2018-10-07T01:57:25.004Z,1001.85
2018-10-07T01:58:05.429Z,1001.83
2018-10-07T01:58:45.800Z,1001.85
2018-10-07T01:59:26.349Z,1001.81
2018-10-07T02:00:06.813Z,1001.84
2018-10-07T02:00:47.165Z,1001.82
2018-10-07T02:01:27.588Z,1001.81
2018-10-07T02:02:08.006Z,1001.82
2018-10-07T02:02:48.411Z,1001.84
2018-10-07T02:03:28.931Z,1001.87
2018-10-07T02:04:09.297Z,1001.86
2018-10-07T02:04:49.835Z,1001.9
2018-10-07T02:05:30.196Z,1001.9
2018-10-07T02:06:10.542Z,1001.95
2018-10-07T02:06:51.447Z,1001.93
2018-10-07T02:07:31.924Z,1001.97
2018-10-07T02:08:12.401Z,1002.02
2018-10-07T02:08:52.745Z,1002.02
2018-10-07T02:09:33.151Z,1002.04
2018-10-07T02:10:13.824Z,1002.08
2018-10-07T02:10:54.288Z,1002.08
2018-10-07T02:11:34.716Z,1002.08
2018-10-07T02:17:18.324Z,1001.95
2018-10-07T02:17:58.954Z,1001.94
2018-10-07T02:18:39.498Z,1001.98
2018-10-07T02:19:21.840Z,1001.96
2018-10-07T02:20:02.437Z,1002
2018-10-07T02:20:42.916Z,1002.01
2018-10-07T02:21:23.160Z,1002.07
2018-10-07T02:22:03.566Z,1002.08
2018-10-07T02:22:43.978Z,1002.08
2018-10-07T02:23:24.434Z,1002.13
2018-10-07T02:24:04.833Z,1002.11
2018-10-07T02:24:45.281Z,1002.11
2018-10-07T02:27:04.814Z,1002.12
2018-10-07T02:27:45.138Z,1002.13
2018-10-07T02:28:25.498Z,1002.18
2018-10-07T02:29:05.987Z,1002.21
2018-10-07T02:29:46.458Z,1002.27
2018-10-07T02:30:26.807Z,1002.32
2018-10-07T02:31:07.232Z,1002.36
2018-10-07T02:31:47.612Z,1002.39
2018-10-07T02:32:28.053Z,1002.44
2018-10-07T02:33:08.448Z,1002.5
2018-10-07T02:35:24.406Z,1002.48
2018-10-07T02:36:03.814Z,1002.49
2018-10-07T02:36:44.232Z,1002.46
2018-10-07T02:37:24.730Z,1002.48
2018-10-07T02:38:05.249Z,1002.49
2018-10-07T02:38:45.680Z,1002.45
2018-10-07T02:39:26.146Z,1002.45
2018-10-07T02:40:06.586Z,1002.47
2018-10-07T02:40:46.964Z,1002.5
2018-10-07T02:41:27.366Z,1002.45
2018-10-07T02:42:08.250Z,1002.52
2018-10-07T02:42:49.276Z,1002.46
2018-10-07T02:43:29.773Z,1002.51
2018-10-07T02:44:10.077Z,1002.49
2018-10-07T02:44:50.504Z,1002.5
2018-10-07T02:45:31.079Z,1002.5
2018-10-07T02:46:11.564Z,1002.47
2018-10-07T02:46:52.191Z,1002.47
2018-10-07T02:47:32.550Z,1002.46
2018-10-07T02:48:13.120Z,1002.45
2018-10-07T02:48:53.638Z,1002.42
2018-10-07T02:49:33.955Z,1002.45
2018-10-07T02:50:14.403Z,1002.45
2018-10-07T02:50:55.205Z,1002.42
2018-10-07T02:51:36.943Z,1002.39
2018-10-07T02:54:35.812Z,1002.24
2018-10-07T02:55:14.851Z,1002.19
2018-10-07T02:55:55.281Z,1002.25
2018-10-07T02:56:35.734Z,1002.19
2018-10-07T02:57:16.162Z,1002.26
2018-10-07T02:57:56.522Z,1002.25
2018-10-07T02:58:37.204Z,1002.28
2018-10-07T02:59:17.353Z,1002.29
2018-10-07T02:59:57.818Z,1002.28
2018-10-07T03:00:38.171Z,1002.26
2018-10-07T03:01:18.620Z,1002.25
2018-10-07T03:01:59.036Z,1002.23
2018-10-07T03:02:39.500Z,1002.22
2018-10-07T03:03:19.970Z,1002.26
2018-10-07T03:04:00.524Z,1002.25
2018-10-07T03:04:40.910Z,1002.29
2018-10-07T03:05:21.594Z,1002.21
2018-10-07T03:06:01.974Z,1002.26
2018-10-07T03:06:42.580Z,1002.28
2018-10-07T03:07:23.240Z,1002.28
2018-10-07T03:08:03.732Z,1002.29
2018-10-07T03:08:45.610Z,1002.25
2018-10-07T03:09:26.273Z,1002.26
2018-10-07T03:10:07.492Z,1002.27
2018-10-07T03:10:50.080Z,1002.25
2018-10-07T03:11:30.570Z,1002.24
2018-10-07T03:12:11.770Z,1002.27
2018-10-07T03:12:52.410Z,1002.24
2018-10-07T03:13:32.945Z,1002.21
2018-10-07T03:14:13.338Z,1002.21
2018-10-07T03:14:53.855Z,1002.23
2018-10-07T03:15:34.306Z,1002.25
2018-10-07T03:16:14.719Z,1002.26
2018-10-07T03:16:55.069Z,1002.27
2018-10-07T03:17:35.513Z,1002.29
2018-10-07T03:18:15.932Z,1002.36
2018-10-07T03:18:56.412Z,1002.4
2018-10-07T03:19:36.849Z,1002.43
2018-10-07T03:20:17.234Z,1002.46
2018-10-07T03:20:57.645Z,1002.48
2018-10-07T03:21:38.404Z,1002.47
2018-10-07T03:22:19.302Z,1002.52
2018-10-07T03:22:59.751Z,1002.56
2018-10-07T03:23:40.172Z,1002.53
2018-10-07T03:24:20.629Z,1002.59
2018-10-07T03:25:01.123Z,1002.63
2018-10-07T03:25:41.429Z,1002.66
2018-10-07T03:26:21.884Z,1002.69
2018-10-07T03:27:02.244Z,1002.74
2018-10-07T03:27:42.661Z,1002.74
2018-10-07T03:28:23.442Z,1002.8
2018-10-07T03:29:03.996Z,1002.83
2018-10-07T03:29:44.395Z,1002.9
2018-10-07T03:30:24.880Z,1002.92
2018-10-07T03:31:05.266Z,1002.92
2018-10-07T03:31:45.763Z,1002.89
2018-10-07T03:32:26.215Z,1002.96
2018-10-07T03:33:06.581Z,1002.93
2018-10-07T03:33:47.031Z,1002.99
2018-10-07T03:34:27.429Z,1003.08
2018-10-07T03:35:08.000Z,1003.05
2018-10-07T03:35:48.451Z,1003.07
2018-10-07T03:36:28.869Z,1003.1
2018-10-07T03:37:09.288Z,1003.14
2018-10-07T03:37:49.773Z,1003.13
2018-10-07T03:38:30.451Z,1003.17
2018-10-07T03:39:10.971Z,1003.19
2018-10-07T03:39:51.290Z,1003.2
2018-10-07T03:40:32.473Z,1003.19
2018-10-07T03:41:12.853Z,1003.18
2018-10-07T03:41:53.409Z,1003.2
2018-10-07T03:42:33.767Z,1003.21
2018-10-07T03:43:14.452Z,1003.21
2018-10-07T03:43:54.986Z,1003.24
2018-10-07T03:44:35.414Z,1003.23
2018-10-07T03:45:15.780Z,1003.23
2018-10-07T03:45:56.292Z,1003.32
2018-10-07T03:46:36.616Z,1003.34
2018-10-07T03:47:17.084Z,1003.3
2018-10-07T03:49:30.539Z,1003.32
2018-10-07T03:50:10.327Z,1003.35
2018-10-07T03:50:50.751Z,1003.32
2018-10-07T03:51:31.262Z,1003.34
2018-10-07T03:52:11.567Z,1003.32
2018-10-07T03:52:52.173Z,1003.39
2018-10-07T03:53:33.000Z,1003.34
2018-10-07T03:54:13.388Z,1003.33
2018-10-07T03:54:53.834Z,1003.36
2018-10-07T03:55:34.271Z,1003.43
2018-10-07T03:56:15.717Z,1003.43
2018-10-07T04:00:52.027Z,1003.46
2018-10-07T04:01:39.447Z,1003.45
2018-10-07T04:02:19.881Z,1003.42
2018-10-07T04:03:00.279Z,1003.46
2018-10-07T04:03:40.863Z,1003.47
2018-10-07T04:06:45.087Z,1003.52
2018-10-07T04:07:25.392Z,1003.52
2018-10-07T04:08:05.840Z,1003.55
2018-10-07T04:08:46.255Z,1003.6
2018-10-07T04:09:26.691Z,1003.63
2018-10-07T04:10:07.254Z,1003.65
2018-10-07T04:10:47.679Z,1003.71
2018-10-07T04:11:27.956Z,1003.75
2018-10-07T04:12:08.304Z,1003.76
2018-10-07T04:12:48.754Z,1003.77
2018-10-07T04:13:29.188Z,1003.76
2018-10-07T04:14:09.646Z,1003.78
2018-10-07T04:14:50.040Z,1003.76
2018-10-07T04:15:30.373Z,1003.79
2018-10-07T04:16:10.864Z,1003.79
2018-10-07T04:16:51.197Z,1003.75
2018-10-07T04:17:31.661Z,1003.78
2018-10-07T04:18:12.078Z,1003.8
2018-10-07T04:18:52.511Z,1003.82
2018-10-07T04:19:33.034Z,1003.83
2018-10-07T04:20:13.390Z,1003.85
2018-10-07T04:20:53.756Z,1003.86
2018-10-07T04:21:34.268Z,1003.85
2018-10-07T04:22:14.682Z,1003.86
2018-10-07T04:22:55.371Z,1003.92
2018-10-07T04:23:37.894Z,1003.88
2018-10-07T04:24:18.734Z,1003.89
2018-10-07T04:24:59.125Z,1003.9
2018-10-07T04:25:39.757Z,1003.88
2018-10-07T04:26:20.385Z,1003.89
2018-10-07T04:27:00.669Z,1003.95
2018-10-07T04:27:41.162Z,1003.98
2018-10-07T04:28:21.622Z,1004
2018-10-07T05:09:27.720Z,1004.65
2018-10-07T05:10:06.472Z,1004.68
2018-10-07T05:10:48.028Z,1004.72
2018-10-07T05:11:28.921Z,1004.73
2018-10-07T05:12:09.638Z,1004.77
2018-10-07T05:12:50.315Z,1004.78
2018-10-07T05:13:30.167Z,1004.84
2018-10-07T05:14:10.783Z,1004.9
2018-10-07T05:14:51.096Z,1004.92
2018-10-07T05:15:31.841Z,1004.94
2018-10-07T05:16:12.414Z,1004.94
2018-10-07T05:16:52.686Z,1004.95
2018-10-07T05:17:33.986Z,1005.04
2018-10-07T05:18:14.385Z,1005.01
2018-10-07T05:18:55.318Z,1005.03
2018-10-07T05:19:35.948Z,1005.02
2018-10-07T05:20:17.315Z,1005.06
2018-10-07T05:20:58.163Z,1005.09
2018-10-07T05:21:38.615Z,1005.13
2018-10-07T05:22:20.281Z,1005.09
2018-10-07T05:23:00.683Z,1005.11
2018-10-07T05:23:41.356Z,1005.12
2018-10-07T05:24:21.960Z,1005.11
2018-10-07T05:25:03.105Z,1005.15
2018-10-07T05:25:43.525Z,1005.11
2018-10-07T05:26:23.828Z,1005.17
2018-10-07T05:27:04.587Z,1005.19
2018-10-07T05:27:45.250Z,1005.22
2018-10-07T05:28:25.664Z,1005.23
2018-10-07T05:29:06.175Z,1005.25
2018-10-07T05:29:49.076Z,1005.3
2018-10-07T05:30:29.607Z,1005.26
2018-10-07T05:31:09.879Z,1005.26
2018-10-07T05:31:50.429Z,1005.26
2018-10-07T05:32:30.763Z,1005.28
2018-10-07T05:33:11.617Z,1005.26
2018-10-07T05:33:52.097Z,1005.3
2018-10-07T05:34:35.881Z,1005.31
2018-10-07T05:35:17.302Z,1005.3
2018-10-07T05:35:57.907Z,1005.33
2018-10-07T05:36:38.256Z,1005.35
2018-10-07T05:37:19.484Z,1005.33
2018-10-07T05:37:59.982Z,1005.3
2018-10-07T05:38:40.660Z,1005.31
2018-10-07T05:39:21.316Z,1005.35
2018-10-07T05:40:01.809Z,1005.32
2018-10-07T05:40:42.206Z,1005.29
2018-10-07T05:41:23.047Z,1005.34
2018-10-07T05:42:03.207Z,1005.35
2018-10-07T05:42:43.849Z,1005.37
2018-10-07T05:47:06.467Z,1005.48
2018-10-07T05:47:46.907Z,1005.48
2018-10-07T05:48:27.800Z,1005.49
2018-10-07T05:49:08.959Z,1005.5
2018-10-07T05:49:49.527Z,1005.47
2018-10-07T05:50:30.131Z,1005.49
2018-10-07T05:51:10.536Z,1005.56
2018-10-07T05:51:51.408Z,1005.54
2018-10-07T05:52:31.779Z,1005.53
2018-10-07T05:53:12.292Z,1005.6
2018-10-07T05:53:52.868Z,1005.57
2018-10-07T05:54:34.331Z,1005.53
2018-10-07T05:55:14.884Z,1005.5
2018-10-07T05:55:56.456Z,1005.51
2018-10-07T05:56:36.896Z,1005.54
2018-10-07T05:57:17.785Z,1005.47
2018-10-07T05:57:58.752Z,1005.51
2018-10-07T06:01:41.704Z,1005.56
2018-10-07T06:02:22.194Z,1005.55
2018-10-07T06:03:02.729Z,1005.56
2018-10-07T06:03:43.732Z,1005.55
2018-10-07T06:04:24.229Z,1005.65
2018-10-07T06:05:04.615Z,1005.61
2018-10-07T06:05:45.026Z,1005.62
2018-10-07T06:06:26.271Z,1005.67
2018-10-07T06:07:06.695Z,1005.66
2018-10-07T06:07:47.154Z,1005.67
2018-10-07T06:08:27.556Z,1005.67
2018-10-07T06:09:09.324Z,1005.7
2018-10-07T06:09:49.367Z,1005.71
2018-10-07T06:10:30.740Z,1005.72
2018-10-07T06:11:11.422Z,1005.74
2018-10-07T06:11:51.662Z,1005.77
2018-10-07T06:12:32.259Z,1005.78
2018-10-07T06:13:13.365Z,1005.75
2018-10-07T06:13:53.846Z,1005.81
2018-10-07T06:14:34.434Z,1005.85
2018-10-07T06:15:14.843Z,1005.9
2018-10-07T06:15:55.306Z,1005.95
2018-10-07T06:16:35.782Z,1005.95
2018-10-07T06:17:16.234Z,1006
2018-10-07T06:22:43.462Z,1006.12
2018-10-07T06:23:24.563Z,1006.15
2018-10-07T06:24:05.975Z,1006.17
2018-10-07T06:24:46.849Z,1006.18
2018-10-07T06:25:27.201Z,1006.21
2018-10-07T06:26:08.040Z,1006.25
2018-10-07T06:26:48.867Z,1006.22
2018-10-07T06:27:29.407Z,1006.23
2018-10-07T06:28:09.817Z,1006.26
2018-10-07T06:28:51.149Z,1006.3
2018-10-07T06:29:31.549Z,1006.29
2018-10-07T06:30:12.373Z,1006.28
2018-10-07T06:30:53.781Z,1006.28
2018-10-07T06:31:34.712Z,1006.31
2018-10-07T06:32:14.978Z,1006.34
2018-10-07T06:32:55.416Z,1006.35
2018-10-07T06:33:36.540Z,1006.32
2018-10-07T06:34:17.000Z,1006.33
2018-10-07T06:34:57.491Z,1006.33
2018-10-07T06:35:39.382Z,1006.39
2018-10-07T06:36:19.677Z,1006.37
2018-10-07T06:37:00.100Z,1006.37
2018-10-07T06:37:40.768Z,1006.39
2018-10-07T06:38:20.966Z,1006.39
2018-10-07T06:39:01.535Z,1006.36
2018-10-07T06:39:42.352Z,1006.41
2018-10-07T06:40:22.693Z,1006.42
2018-10-07T06:41:03.295Z,1006.42
2018-10-07T06:41:43.681Z,1006.41
2018-10-07T06:42:24.337Z,1006.43
2018-10-07T06:43:04.793Z,1006.42
2018-10-07T06:43:45.956Z,1006.48
2018-10-07T06:44:26.319Z,1006.38
2018-10-07T06:45:06.733Z,1006.47
2018-10-07T06:45:47.467Z,1006.5
2018-10-07T06:46:27.821Z,1006.51
2018-10-07T06:47:08.312Z,1006.55
2018-10-07T06:47:49.131Z,1006.6
2018-10-07T06:48:29.555Z,1006.63
2018-10-07T06:49:11.202Z,1006.63
2018-10-07T06:49:51.609Z,1006.66
2018-10-07T06:50:34.575Z,1006.69
2018-10-07T06:51:15.585Z,1006.65
2018-10-07T06:51:56.157Z,1006.72
2018-10-07T06:52:36.717Z,1006.73
2018-10-07T06:53:17.473Z,1006.76
2018-10-07T06:53:57.903Z,1006.76
2018-10-07T06:54:38.267Z,1006.78
2018-10-07T06:55:18.965Z,1006.8
2018-10-07T06:55:59.280Z,1006.83
2018-10-07T06:56:39.997Z,1006.87
2018-10-07T06:57:20.380Z,1006.9
2018-10-07T06:58:01.892Z,1006.86
2018-10-07T06:58:41.484Z,1006.91
2018-10-07T06:59:22.225Z,1006.93
2018-10-07T07:00:02.605Z,1007
2018-10-07T07:00:43.208Z,1006.93
2018-10-07T07:01:23.718Z,1007.01
2018-10-07T07:02:04.099Z,1007.08
2018-10-07T07:02:44.493Z,1007.01
2018-10-07T07:03:24.941Z,1007.05
2018-10-07T07:04:05.482Z,1007.06
2018-10-07T07:04:45.969Z,1007.13
2018-10-07T07:05:26.435Z,1007.13
2018-10-07T07:06:07.020Z,1007.13
2018-10-07T07:06:47.977Z,1007.09
2018-10-07T07:07:28.417Z,1007.09
2018-10-07T07:08:08.868Z,1007.16
2018-10-07T07:08:50.390Z,1007.21
2018-10-07T07:09:30.708Z,1007.18
2018-10-07T07:10:11.220Z,1007.21
2018-10-07T07:10:51.879Z,1007.23
2018-10-07T07:11:32.279Z,1007.25
2018-10-07T07:12:12.734Z,1007.23
2018-10-07T07:12:53.217Z,1007.25
2018-10-07T07:13:34.660Z,1007.29
2018-10-07T07:14:14.980Z,1007.27
2018-10-07T07:14:55.386Z,1007.26
2018-10-07T07:15:36.352Z,1007.3
2018-10-07T07:16:16.788Z,1007.3
2018-10-07T07:16:57.498Z,1007.32
2018-10-07T07:17:38.216Z,1007.32
2018-10-07T07:18:18.564Z,1007.39
2018-10-07T07:18:59.120Z,1007.38
2018-10-07T07:19:40.000Z,1007.43
2018-10-07T07:20:20.335Z,1007.41
2018-10-07T07:21:00.691Z,1007.42
2018-10-07T07:21:41.628Z,1007.43
2018-10-07T07:22:22.345Z,1007.48
2018-10-07T07:25:42.752Z,1007.59
2018-10-07T07:26:24.875Z,1007.55
2018-10-07T07:27:05.237Z,1007.62
2018-10-07T07:27:45.549Z,1007.54
2018-10-07T07:28:26.056Z,1007.58
2018-10-07T07:29:06.661Z,1007.64
2018-10-07T07:29:46.993Z,1007.65
2018-10-07T07:30:27.751Z,1007.68
2018-10-07T07:31:08.012Z,1007.68
2018-10-07T07:31:48.883Z,1007.72
2018-10-07T07:32:29.937Z,1007.76
2018-10-07T07:33:10.529Z,1007.73
2018-10-07T07:33:51.052Z,1007.79
2018-10-07T07:34:32.101Z,1007.76
2018-10-07T07:35:12.584Z,1007.81
2018-10-07T07:35:53.177Z,1007.85
2018-10-07T07:36:33.572Z,1007.86
2018-10-07T07:37:14.017Z,1007.87
2018-10-07T07:37:54.869Z,1007.89
2018-10-07T07:38:35.273Z,1007.83
2018-10-07T07:39:15.730Z,1007.91
2018-10-07T07:39:56.356Z,1007.93
2018-10-07T07:40:37.121Z,1007.94
2018-10-07T07:41:17.844Z,1007.93
2018-10-07T07:41:58.671Z,1007.88
2018-10-07T07:42:39.212Z,1008
2018-10-07T07:43:19.603Z,1008.01
2018-10-07T07:44:00.352Z,1008.01
2018-10-07T07:44:40.880Z,1008.05
2018-10-07T07:45:21.894Z,1008.04
2018-10-07T07:46:02.264Z,1008.05
2018-10-07T07:46:42.777Z,1008.07
2018-10-07T07:47:23.402Z,1008.13
2018-10-07T07:48:04.150Z,1008.08
2018-10-07T07:48:44.454Z,1008.08
2018-10-07T07:49:25.029Z,1008.1
2018-10-07T07:50:05.714Z,1008.13
2018-10-07T07:50:46.204Z,1008.13
2018-10-07T07:51:26.719Z,1008.17
2018-10-07T07:52:07.508Z,1008.18
2018-10-07T07:52:48.260Z,1008.21
2018-10-07T07:53:29.823Z,1008.22
2018-10-07T07:54:10.212Z,1008.23
2018-10-07T07:54:50.802Z,1008.25
2018-10-07T07:55:31.289Z,1008.23
2018-10-07T07:56:11.781Z,1008.28
2018-10-07T07:56:52.206Z,1008.29
2018-10-07T07:57:35.139Z,1008.29
2018-10-07T07:58:15.579Z,1008.35
2018-10-07T07:58:56.169Z,1008.34
2018-10-07T07:59:36.607Z,1008.34
2018-10-07T08:00:17.384Z,1008.35
2018-10-07T08:00:57.952Z,1008.35
2018-10-07T08:01:38.409Z,1008.4
2018-10-07T08:02:18.873Z,1008.37
2018-10-07T08:02:59.379Z,1008.38
2018-10-07T08:03:39.884Z,1008.47
2018-10-07T08:04:20.311Z,1008.47
2018-10-07T08:05:00.845Z,1008.52
2018-10-07T08:07:59.349Z,1008.58
2018-10-07T08:08:40.491Z,1008.61
2018-10-07T08:09:21.117Z,1008.63
2018-10-07T08:10:01.599Z,1008.65
2018-10-07T08:10:42.118Z,1008.65
2018-10-07T08:11:23.211Z,1008.64
2018-10-07T08:12:03.731Z,1008.67
2018-10-07T08:12:44.189Z,1008.58
2018-10-07T08:13:25.034Z,1008.66
2018-10-07T08:14:05.488Z,1008.69
2018-10-07T08:14:45.830Z,1008.78
2018-10-07T08:18:37.714Z,1008.83
2018-10-07T08:19:23.449Z,1008.82
2018-10-07T08:20:03.906Z,1008.85
2018-10-07T08:20:44.356Z,1008.86
2018-10-07T08:21:24.774Z,1008.89
2018-10-07T08:22:05.169Z,1008.9
2018-10-07T08:22:45.687Z,1008.91
2018-10-07T08:23:26.024Z,1008.94
2018-10-07T08:24:06.548Z,1008.94
2018-10-07T08:24:47.737Z,1008.91
2018-10-07T08:25:28.090Z,1008.9
2018-10-07T08:26:09.696Z,1008.91
2018-10-07T08:26:50.127Z,1008.93
2018-10-07T08:27:30.616Z,1008.95
2018-10-07T08:28:12.031Z,1008.94
2018-10-07T08:28:52.623Z,1008.94
2018-10-07T08:29:33.067Z,1008.89
2018-10-07T08:30:17.265Z,1008.98
2018-10-07T08:30:57.884Z,1008.94
2018-10-07T08:31:38.627Z,1009
2018-10-07T08:32:19.456Z,1008.95
2018-10-07T08:32:59.835Z,1009
2018-10-07T08:33:40.613Z,1009.02
2018-10-07T08:34:21.463Z,1008.97
2018-10-07T08:35:02.238Z,1009
2018-10-07T08:35:42.962Z,1009.01
2018-10-07T08:36:23.457Z,1008.95
2018-10-07T08:37:04.532Z,1008.92
2018-10-07T08:37:45.545Z,1008.95
2018-10-07T08:38:27.344Z,1008.94
2018-10-07T08:39:07.997Z,1008.95
2018-10-07T08:39:48.521Z,1008.9
2018-10-07T08:40:29.199Z,1008.93
2018-10-07T08:41:10.296Z,1008.88
2018-10-07T08:41:51.047Z,1008.87
2018-10-07T08:42:31.523Z,1008.87
2018-10-07T08:43:11.956Z,1008.89
2018-10-07T08:43:52.391Z,1008.89
2018-10-07T08:44:34.456Z,1008.9
2018-10-07T08:45:14.771Z,1008.88
2018-10-07T08:45:55.821Z,1008.89
2018-10-07T08:46:36.780Z,1008.86
2018-10-07T08:47:17.353Z,1008.84
2018-10-07T08:47:58.285Z,1008.88
2018-10-07T08:48:39.069Z,1008.88
2018-10-07T08:49:19.677Z,1008.84
2018-10-07T08:50:00.355Z,1008.85
2018-10-07T08:50:40.747Z,1008.83
2018-10-07T08:51:23.203Z,1008.87
2018-10-07T08:52:04.715Z,1008.85
2018-10-07T08:52:45.175Z,1008.86
2018-10-07T08:53:25.681Z,1008.85
2018-10-07T08:54:06.938Z,1008.88
2018-10-07T08:54:47.450Z,1008.83
2018-10-07T08:55:27.936Z,1008.83
2018-10-07T08:56:09.581Z,1008.82
2018-10-07T08:56:49.665Z,1008.81
2018-10-07T08:57:30.612Z,1008.81
2018-10-07T08:58:11.069Z,1008.84
2018-10-07T08:58:52.569Z,1008.81
2018-10-07T08:59:33.099Z,1008.86
2018-10-07T09:00:14.086Z,1008.85
2018-10-07T09:00:54.512Z,1008.79
2018-10-07T09:01:35.224Z,1008.84
2018-10-07T09:02:15.807Z,1008.87
2018-10-07T09:02:56.266Z,1008.87
2018-10-07T09:03:37.130Z,1008.87
2018-10-07T09:04:17.448Z,1008.86
2018-10-07T09:04:57.951Z,1008.92
2018-10-07T09:05:39.901Z,1008.92
2018-10-07T09:06:20.518Z,1008.9
2018-10-07T09:07:01.084Z,1008.86
2018-10-07T09:07:42.059Z,1008.91
2018-10-07T09:08:22.785Z,1008.93
2018-10-07T09:09:04.932Z,1008.92
2018-10-07T09:09:45.174Z,1008.89
2018-10-07T09:10:25.706Z,1008.92
2018-10-07T09:12:46.421Z,1008.85
2018-10-07T09:13:32.106Z,1008.85
2018-10-07T09:14:13.238Z,1008.82
2018-10-07T09:14:53.667Z,1008.85
2018-10-07T09:15:37.781Z,1008.81
2018-10-07T09:16:18.920Z,1008.85
2018-10-07T09:16:59.671Z,1008.85
2018-10-07T09:17:40.613Z,1008.88
2018-10-07T09:18:21.371Z,1008.85
2018-10-07T09:19:04.334Z,1008.92
2018-10-07T09:19:45.309Z,1008.93
2018-10-07T09:20:25.811Z,1008.97
2018-10-07T09:21:07.197Z,1008.95
2018-10-07T09:21:48.556Z,1008.95
2018-10-07T09:22:29.001Z,1009.02
2018-10-07T09:23:09.955Z,1009.03
2018-10-07T09:39:26.893Z,1009.28
2018-10-07T09:40:22.582Z,1009.26
2018-10-07T09:41:02.989Z,1009.24
2018-10-07T09:41:43.399Z,1009.25
2018-10-07T09:42:27.335Z,1009.25
2018-10-07T09:43:07.820Z,1009.25
2018-10-07T09:43:48.874Z,1009.17
2018-10-07T09:44:30.200Z,1009.21
2018-10-07T09:45:10.610Z,1009.24
2018-10-07T09:45:51.051Z,1009.22
2018-10-07T09:46:31.437Z,1009.25
2018-10-07T09:47:11.855Z,1009.31
2018-10-07T09:47:52.223Z,1009.29
2018-10-07T09:48:32.639Z,1009.23
2018-10-07T09:49:13.141Z,1009.19
2018-10-07T09:49:53.675Z,1009.21
2018-10-07T09:50:34.356Z,1009.22
2018-10-07T09:51:14.705Z,1009.25
2018-10-07T09:51:56.646Z,1009.21
2018-10-07T09:52:37.098Z,1009.24
2018-10-07T09:53:17.750Z,1009.21
2018-10-07T09:53:58.120Z,1009.27
2018-10-07T09:54:38.572Z,1009.28
2018-10-07T09:55:19.877Z,1009.3
2018-10-07T09:56:00.759Z,1009.29
2018-10-07T09:56:42.162Z,1009.35
2018-10-07T09:57:22.741Z,1009.32
2018-10-07T09:58:03.322Z,1009.36
2018-10-07T09:58:44.269Z,1009.38